Time;durP1;ratioP1;P1;durP2;ratioP2;P2;SDS_P1;SDS_P2;PMS_P1;PMS_P2;Temp;Humidity;BMP_temperature;BMP_pressure;BME280_temperature;BME280_humidity;BME280_pressure;Samples;Min_cycle;Max_cycle;Signal;HPM_P1;HPM_P2
2023/04/30 00:00:09;;;;;;;40.83;37.67;;;;;;;;;;1809274;79;27351;-63
2023/04/30 00:02:36;;;;;;;68.67;63.05;;;;;;;;;;1810652;79;25565;-63
2023/04/30 00:05:06;;;;;;;92.40;85.35;;;;;;;;;;1810826;79;25375;-64
2023/04/30 00:07:33;;;;;;;89.92;82.92;;;;;;;;;;1810743;79;25523;-64
2023/04/30 00:10:04;;;;;;;90.53;83.62;;;;;;;;;;1810048;79;25293;-64
2023/04/30 00:12:31;;;;;;;89.80;81.95;;;;;;;;;;1810567;79;27412;-64
2023/04/30 00:14:58;;;;;;;90.17;83.37;;;;;;;;;;1810105;79;27224;-64
2023/04/30 00:17:26;;;;;;;88.78;82.00;;;;;;;;;;1810748;79;25454;-64
2023/04/30 00:19:53;;;;;;;87.33;80.42;;;;;;;;;;1810682;79;26165;-64
2023/04/30 00:22:20;;;;;;;89.20;82.40;;;;;;;;;;1810718;79;25479;-64
2023/04/30 00:24:47;;;;;;;89.80;82.85;;;;;;;;;;1810605;79;28056;-64
2023/04/30 00:27:14;;;;;;;89.77;82.97;;;;;;;;;;1810173;79;25471;-64
2023/04/30 00:29:41;;;;;;;87.75;81.22;;;;;;;;;;1810714;79;25555;-64
2023/04/30 00:32:08;;;;;;;89.72;82.75;;;;;;;;;;1810579;79;25551;-64
2023/04/30 00:34:35;;;;;;;87.75;81.30;;;;;;;;;;1810528;79;25290;-64
2023/04/30 00:37:02;;;;;;;89.07;82.50;;;;;;;;;;1810787;79;27450;-64
2023/04/30 00:39:31;;;;;;;20.27;11.53;;;;;;;;;;1810068;79;25460;-64
2023/04/30 00:42:01;;;;;;;21.02;13.60;;;;;;;;;;1810384;79;25551;-64
2023/04/30 00:44:28;;;;;;;22.00;14.00;;;;;;;;;;1810467;79;25487;-64
2023/04/30 00:46:55;;;;;;;20.10;13.83;;;;;;;;;;1810739;79;25300;-64
2023/04/30 00:49:22;;;;;;;25.20;14.68;;;;;;;;;;1810457;79;27329;-64
2023/04/30 00:51:51;;;;;;;28.47;15.18;;;;;;;;;;1810454;79;27241;-63
2023/04/30 00:54:20;;;;;;;57.03;52.08;;;;;;;;;;1810496;79;25278;-63
2023/04/30 00:56:48;;;;;;;94.22;86.45;;;;;;;;;;1810828;79;25597;-63
2023/04/30 00:59:17;;;;;;;95.32;88.05;;;;;;;;;;1810775;79;25462;-64
2023/04/30 01:01:45;;;;;;;91.67;84.30;;;;;;;;;;1810722;79;27470;-64
2023/04/30 01:04:12;;;;;;;94.67;87.40;;;;;;;;;;1810575;79;25420;-63
2023/04/30 01:06:39;;;;;;;64.03;58.17;;;;;;;;;;1810670;79;25282;-63
2023/04/30 01:09:09;;;;;;;22.82;15.48;;;;;;;;;;1809927;79;27790;-63
2023/04/30 01:12:02;;;;;;;32.80;29.65;;;;;;;;;;1810704;79;25273;-63
2023/04/30 01:14:43;;;;;;;94.58;87.20;;;;;;;;;;1810677;79;27418;-63
2023/04/30 01:17:38;;;;;;;91.67;84.65;;;;;;;;;;1810633;79;25328;-63
2023/04/30 01:20:09;;;;;;;92.10;84.52;;;;;;;;;;1810781;79;25291;-63
2023/04/30 01:22:52;;;;;;;91.85;84.60;;;;;;;;;;1810728;79;25658;-63
2023/04/30 01:25:35;;;;;;;53.20;48.15;;;;;;;;;;1810785;79;25387;-63
2023/04/30 01:28:10;;;;;;;92.90;85.75;;;;;;;;;;1810711;79;27426;-63
2023/04/30 01:30:39;;;;;;;92.05;85.10;;;;;;;;;;1810652;79;27181;-63
2023/04/30 01:33:07;;;;;;;85.85;78.97;;;;;;;;;;1810336;79;25454;-63
2023/04/30 01:35:55;;;;;;;10.00;7.97;;;;;;;;;;1810368;79;25476;-63
2023/04/30 01:38:50;;;;;;;89.55;82.70;;;;;;;;;;1808080;79;25356;-63
2023/04/30 01:41:34;;;;;;;89.65;82.60;;;;;;;;;;1810733;79;27382;-63
2023/04/30 01:44:18;;;;;;;86.08;79.07;;;;;;;;;;1810581;79;25504;-63
2023/04/30 01:46:55;;;;;;;8.25;7.92;;;;;;;;;;1810421;79;25360;-63
2023/04/30 01:49:31;;;;;;;7.23;6.83;;;;;;;;;;1711430;83;25522;-63
2023/04/30 01:52:10;;;;;;;4.05;3.87;;;;;;;;;;1711291;83;25515;-63
2023/04/30 01:54:46;;;;;;;4.72;4.53;;;;;;;;;;1708479;83;28044;-63
2023/04/30 01:57:26;;;;;;;27.70;16.40;;;;;;;;;;1710477;83;25595;-64
2023/04/30 01:59:55;;;;;;;;;;;;;;;;;;1712596;83;25582;-63
2023/04/30 02:02:22;;;;;;;22.40;14.55;;;;;;;;;;1711483;83;25566;-63
2023/04/30 02:04:49;;;;;;;26.07;16.62;;;;;;;;;;1711401;83;25411;-63
2023/04/30 02:07:20;;;;;;;23.00;15.68;;;;;;;;;;1711271;83;27466;-63
2023/04/30 02:09:50;;;;;;;28.30;17.15;;;;;;;;;;1709928;83;25946;-63
2023/04/30 02:12:16;;;;;;;28.70;16.30;;;;;;;;;;1711336;83;25584;-63
2023/04/30 02:14:43;;;;;;;23.70;16.62;;;;;;;;;;1711271;83;25582;-63
2023/04/30 02:17:10;;;;;;;24.30;16.85;;;;;;;;;;1711377;83;25543;-63
2023/04/30 02:19:37;;;;;;;25.43;18.17;;;;;;;;;;1711303;83;27368;-63
2023/04/30 02:22:04;;;;;;;26.42;17.30;;;;;;;;;;1711206;83;25384;-63
2023/04/30 02:24:31;;;;;;;25.05;16.45;;;;;;;;;;1711293;83;25570;-63
2023/04/30 02:26:58;;;;;;;26.52;17.10;;;;;;;;;;1778619;79;25540;-63
2023/04/30 02:29:25;;;;;;;27.40;21.52;;;;;;;;;;1810800;79;25309;-63
2023/04/30 02:31:52;;;;;;;95.50;88.05;;;;;;;;;;1810887;79;27404;-63
2023/04/30 02:34:19;;;;;;;94.37;86.42;;;;;;;;;;1810524;79;25774;-63
2023/04/30 02:36:46;;;;;;;95.17;87.65;;;;;;;;;;1810778;79;25458;-63
2023/04/30 02:39:13;;;;;;;95.92;87.92;;;;;;;;;;1810710;79;25536;-63
2023/04/30 02:41:39;;;;;;;94.15;86.90;;;;;;;;;;1810811;79;25439;-63
2023/04/30 02:44:06;;;;;;;92.78;85.32;;;;;;;;;;1810806;79;27392;-63
2023/04/30 02:46:33;;;;;;;95.20;87.55;;;;;;;;;;1810796;79;25482;-63
2023/04/30 02:49:01;;;;;;;94.70;87.27;;;;;;;;;;1810761;79;25492;-63
2023/04/30 02:51:28;;;;;;;92.00;84.22;;;;;;;;;;1810717;79;25508;-63
2023/04/30 02:53:55;;;;;;;91.37;84.07;;;;;;;;;;1810746;79;25323;-63
2023/04/30 02:56:22;;;;;;;91.67;83.35;;;;;;;;;;1810770;79;27403;-63
2023/04/30 02:58:52;;;;;;;97.73;89.17;;;;;;;;;;1810631;79;25416;-63
2023/04/30 03:01:21;;;;;;;95.47;87.97;;;;;;;;;;1810859;79;25353;-62
2023/04/30 03:03:48;;;;;;;95.32;87.42;;;;;;;;;;1810955;79;25546;-62
2023/04/30 03:06:15;;;;;;;93.47;85.83;;;;;;;;;;1810781;79;25400;-62
2023/04/30 03:08:42;;;;;;;91.27;83.67;;;;;;;;;;1810746;79;27342;-62
2023/04/30 03:13:24;;;;;;;23.87;16.97;;;;;;;10.46;76.53;100116.53;1925016;74;34649;-63
2023/04/30 03:16:00;;;;;;;27.95;18.15;;;;;;;10.42;76.89;100117.45;1893995;75;25353;-63
2023/04/30 03:18:28;;;;;;;30.02;17.98;;;;;;;10.45;77.21;100121.71;1894008;75;29715;-63
2023/04/30 03:20:54;;;;;;;29.32;18.75;;;;;;;10.48;77.75;100121.63;1894732;75;25452;-64
2023/04/30 03:23:21;;;;;;;29.65;19.05;;;;;;;10.51;78.05;100122.92;1894802;75;25596;-63
2023/04/30 03:25:50;;;;;;;28.25;18.27;;;;;;;10.53;78.39;100131.52;1894801;75;25425;-63
2023/04/30 03:28:16;;;;;;;31.33;18.82;;;;;;;10.55;78.30;100129.29;1895040;75;25571;-63
2023/04/30 03:30:42;;;;;;;26.52;19.05;;;;;;;10.57;78.47;100129.23;1894819;75;27579;-63
2023/04/30 03:33:08;;;;;;;29.77;18.90;;;;;;;10.59;78.37;100132.42;1894622;75;25579;-63
2023/04/30 03:35:37;;;;;;;89.62;82.33;;;;;;;10.63;78.50;100138.00;1822045;78;25652;-63
2023/04/30 03:38:06;;;;;;;94.60;87.10;;;;;;;10.63;78.61;100140.14;1855613;77;25536;-63
2023/04/30 03:40:32;;;;;;;93.82;86.28;;;;;;;10.64;78.91;100141.75;1822290;78;25605;-64
2023/04/30 03:43:01;;;;;;;94.03;86.03;;;;;;;10.68;78.83;100147.89;1855567;77;28168;-64
2023/04/30 03:45:27;;;;;;;94.70;87.20;;;;;;;10.71;78.67;100152.65;1822113;78;25730;-63
2023/04/30 03:47:53;;;;;;;99.07;90.95;;;;;;;10.75;78.67;100165.25;1855552;77;25644;-63
2023/04/30 03:50:20;;;;;;;94.72;86.78;;;;;;;10.77;78.72;100164.94;1821947;78;25419;-62
2023/04/30 03:52:46;;;;;;;95.07;87.67;;;;;;;10.78;78.96;100173.30;1855575;77;25344;-62
2023/04/30 03:55:12;;;;;;;95.80;88.00;;;;;;;10.78;78.95;100173.30;1822067;78;27457;-62
2023/04/30 03:57:40;;;;;;;93.87;86.15;;;;;;;10.74;78.56;100177.16;1822020;78;25843;-62
2023/04/30 04:00:14;;;;;;;92.67;85.28;;;;;;;10.70;78.56;100172.15;1855652;77;25160;-62
2023/04/30 04:02:40;;;;;;;92.82;84.40;;;;;;;10.68;78.49;100186.55;1822024;78;25569;-63
2023/04/30 04:05:11;;;;;;;93.05;85.72;;;;;;;10.66;78.35;100186.06;1822097;78;25446;-63
2023/04/30 04:07:37;;;;;;;89.25;82.70;;;;;;;10.63;78.23;100192.09;1855762;77;29986;-63
2023/04/30 04:10:07;;;;;;;90.75;83.80;;;;;;;10.57;77.60;100187.92;1821888;78;25403;-63
2023/04/30 04:12:34;;;;;;;90.45;83.75;;;;;;;10.55;77.63;100193.63;1838781;77;25601;-63
2023/04/30 04:15:00;;;;;;;88.45;81.82;;;;;;;10.53;77.45;100189.09;1825198;78;25512;-63
2023/04/30 04:17:29;;;;;;;86.45;79.80;;;;;;;10.51;77.16;100194.59;1825202;78;25391;-63
2023/04/30 04:19:55;;;;;;;87.60;81.17;;;;;;;10.51;77.30;100193.23;1825317;78;27499;-63
2023/04/30 04:22:23;;;;;;;87.90;81.47;;;;;;;10.50;77.01;100199.74;1825140;78;25769;-63
2023/04/30 04:24:50;;;;;;;86.50;80.25;;;;;;;10.48;76.54;100202.75;1824587;78;25438;-63
2023/04/30 04:27:19;;;;;;;84.13;77.80;;;;;;;10.45;76.18;100203.37;1824553;78;25408;-63
2023/04/30 04:29:46;;;;;;;88.20;82.12;;;;;;;10.42;75.46;100214.27;1824633;78;25425;-63
2023/04/30 04:32:16;;;;;;;83.67;77.32;;;;;;;10.39;74.92;100220.84;1824706;78;27490;-63
2023/04/30 04:34:43;;;;;;;81.78;76.02;;;;;;;10.35;74.72;100222.02;1824660;78;25411;-64
2023/04/30 04:37:10;;;;;;;83.63;77.33;;;;;;;;;;1824613;78;25427;-63
2023/04/30 04:39:37;;;;;;;70.37;65.52;;;;;;;;;;1824555;78;25559;-63
2023/04/30 04:42:04;;;;;;;80.72;75.03;;;;;;;;;;1824625;78;25379;-63
2023/04/30 04:44:31;;;;;;;78.30;72.77;;;;;;;;;;1824623;78;32438;-64
2023/04/30 04:46:58;;;;;;;83.22;77.40;;;;;;;;;;1824550;78;25607;-64
2023/04/30 04:49:24;;;;;;;58.13;54.30;;;;;;;;;;1824565;78;34794;-64
2023/04/30 04:51:52;;;;;;;38.58;36.00;;;;;;;;;;1824516;78;25515;-64
2023/04/30 04:54:18;;;;;;;76.43;71.13;;;;;;;;;;1824556;78;25535;-64
2023/04/30 04:56:44;;;;;;;80.23;74.73;;;;;;;;;;1824634;78;32460;-64
2023/04/30 04:59:10;;;;;;;75.77;70.50;;;;;;;;;;1824469;78;29577;-64
2023/04/30 05:01:36;;;;;;;80.10;74.33;;;;;;;;;;1824688;78;34733;-64
2023/04/30 05:04:04;;;;;;;41.43;38.63;;;;;;;;;;1824515;78;25482;-64
2023/04/30 05:06:30;;;;;;;89.60;82.85;;;;;;;;;;1824755;78;25544;-63
2023/04/30 05:09:01;;;;;;;82.40;76.30;;;;;;;;;;1824608;78;27489;-63
2023/04/30 05:11:27;;;;;;;;;;;;;;;;;;1827173;78;25416;-63
2023/04/30 05:13:53;;;;;;;82.07;76.40;;;;;;;;;;1843891;77;34726;-63
2023/04/30 05:16:19;;;;;;;78.73;72.97;;;;;;;;;;1844463;77;32616;-63
2023/04/30 05:18:48;;;;;;;80.07;74.40;;;;;;;;;;1844524;77;25525;-63
2023/04/30 05:21:14;;;;;;;83.97;78.15;;;;;;;;;;1844771;77;28072;-63
2023/04/30 05:23:46;;;;;;;14.35;13.55;;;;;;;;;;1844503;77;25367;-63
2023/04/30 05:26:13;;;;;;;82.45;76.50;;;;;;;;;;1844564;77;25302;-64
2023/04/30 05:28:42;;;;;;;82.35;76.65;;;;;;;;;;1844566;77;25427;-64
2023/04/30 05:31:09;;;;;;;79.35;73.78;;;;;;;;;;1844504;77;25264;-63
2023/04/30 05:33:39;;;;;;;78.87;73.33;;;;;;;;;;1844418;77;27399;-63
2023/04/30 05:36:10;;;;;;;80.83;75.10;;;;;;;;;;1844350;77;25530;-63
2023/04/30 05:38:37;;;;;;;78.80;72.87;;;;;;;;;;1844483;77;25459;-63
2023/04/30 05:41:04;;;;;;;78.33;72.82;;;;;;;;;;1844403;77;27477;-71
2023/04/30 05:43:31;;;;;;;81.30;75.35;;;;;;;;;;1844516;77;25493;-71
2023/04/30 05:45:58;;;;;;;80.55;74.67;;;;;;;;;;1844495;77;27350;-71
2023/04/30 05:48:26;;;;;;;81.35;74.95;;;;;;;;;;1844390;77;25620;-72
2023/04/30 05:50:54;;;;;;;78.95;72.53;;;;;;;;;;1844669;77;25365;-71
2023/04/30 05:53:23;;;;;;;54.05;50.33;;;;;;;;;;1844609;77;25751;-72
2023/04/30 05:55:50;;;;;;;81.20;75.23;;;;;;;;;;1844516;77;25444;-71
2023/04/30 05:58:17;;;;;;;83.63;77.07;;;;;;;;;;1844501;77;27438;-72
2023/04/30 06:00:46;;;;;;;79.90;73.90;;;;;;;;;;1844407;77;25500;-72
2023/04/30 06:03:12;;;;;;;92.30;85.60;;;;;;;;;;1844677;77;25300;-73
2023/04/30 06:05:40;;;;;;;84.50;78.20;;;;;;;;;;1844448;77;25333;-74
2023/04/30 06:08:08;;;;;;;79.58;73.83;;;;;;;;;;1844687;77;25283;-75
2023/04/30 06:10:38;;;;;;;81.15;75.25;;;;;;;;;;1844495;77;27412;-76
2023/04/30 06:13:06;;;;;;;83.97;77.97;;;;;;;;;;1849691;77;25544;-74
2023/04/30 06:15:33;;;;;;;83.95;78.25;;;;;;;;;;1854906;77;25544;-75
2023/04/30 06:18:00;;;;;;;82.45;76.30;;;;;;;;;;1854864;77;25766;-75
2023/04/30 06:20:27;;;;;;;80.55;75.05;;;;;;;;;;1854937;77;25303;-76
2023/04/30 06:22:55;;;;;;;80.80;75.40;;;;;;;;;;1854930;77;27347;-75
2023/04/30 06:25:21;;;;;;;82.88;77.03;;;;;;;;;;1854823;77;25418;-76
2023/04/30 06:27:50;;;;;;;81.12;75.62;;;;;;;;;;1854918;77;25458;-76
2023/04/30 06:30:17;;;;;;;82.25;76.22;;;;;;;;;;1855075;77;25371;-76
2023/04/30 06:32:45;;;;;;;84.20;78.33;;;;;;;;;;1854856;77;25468;-76
2023/04/30 06:35:11;;;;;;;83.92;77.82;;;;;;;;;;1854912;77;27385;-74
2023/04/30 06:37:39;;;;;;;82.88;76.85;;;;;;;;;;1854778;77;25319;-75
2023/04/30 06:40:10;;;;;;;80.32;74.72;;;;;;;;;;1855112;77;25277;-75
2023/04/30 06:42:39;;;;;;;80.00;74.67;;;;;;;;;;1854873;77;25276;-76
2023/04/30 06:45:10;;;;;;;78.87;73.40;;;;;;;;;;1855120;77;25490;-76
2023/04/30 06:47:37;;;;;;;83.40;78.05;;;;;;;;;;1854963;77;27375;-77
2023/04/30 06:50:07;;;;;;;23.73;21.55;;;;;;;;;;1854776;77;25445;-75
2023/04/30 06:52:34;;;;;;;82.35;76.77;;;;;;;;;;1854844;77;25325;-75
2023/04/30 06:55:01;;;;;;;80.53;74.95;;;;;;;;;;1854809;77;25476;-75
2023/04/30 06:57:28;;;;;;;77.80;72.53;;;;;;;;;;1854926;77;25402;-75
2023/04/30 06:59:55;;;;;;;11.00;4.78;;;;;;;;;;1854871;77;27401;-75
2023/04/30 07:02:24;;;;;;;7.92;4.92;;;;;;;;;;1854936;77;25636;-75
2023/04/30 07:04:51;;;;;;;44.20;40.55;;;;;;;;;;1854866;77;25426;-74
2023/04/30 07:07:19;;;;;;;72.80;68.25;;;;;;;;;;1855274;77;25306;-73
2023/04/30 07:09:46;;;;;;;74.47;69.40;;;;;;;;;;1855111;77;25382;-75
2023/04/30 07:12:13;;;;;;;76.45;71.15;;;;;;;;;;1854600;77;27334;-75
2023/04/30 07:14:40;;;;;;;76.92;71.85;;;;;;;;;;1844563;77;25552;-76
2023/04/30 07:17:07;;;;;;;50.90;47.45;;;;;;;;;;1844454;77;25048;-76
2023/04/30 07:19:34;;;;;;;75.52;70.60;;;;;;;;;;1844377;77;25481;-76
2023/04/30 07:22:01;;;;;;;77.58;72.67;;;;;;;;;;1844422;77;25490;-76
2023/04/30 07:24:28;;;;;;;79.20;74.10;;;;;;;;;;1844463;77;27530;-74
2023/04/30 07:27:01;;;;;;;72.12;67.58;;;;;;;;;;1844459;77;25396;-74
2023/04/30 07:29:25;;;;;;;75.65;70.52;;;;;;;;;;1843294;77;25587;-72
2023/04/30 07:31:52;;;;;;;71.00;66.47;;;;;;;;;;1844442;77;25544;-73
2023/04/30 07:34:19;;;;;;;51.28;48.00;;;;;;;;;;1844511;77;25338;-74
2023/04/30 07:36:48;;;;;;;55.10;51.60;;;;;;;;;;1844535;77;27338;-74
2023/04/30 07:39:17;;;;;;;6.28;3.45;;;;;;;;;;1844646;77;25278;-75
2023/04/30 07:41:48;;;;;;;5.20;3.85;;;;;;;;;;1774603;75;25931;-74
2023/04/30 07:44:16;;;;;;;6.97;3.80;;;;;;;;;;1758261;81;25637;-73
2023/04/30 07:46:44;;;;;;;8.85;5.85;;;;;;;;;;1722498;83;25420;-73
2023/04/30 07:49:11;;;;;;;32.25;29.82;;;;;;;;;;1758578;81;27338;-74
2023/04/30 07:51:38;;;;;;;76.17;71.12;;;;;;;;;;1726814;83;25510;-75
2023/04/30 07:54:05;;;;;;;74.70;69.82;;;;;;;;;;1723012;83;25303;-75
2023/04/30 07:56:32;;;;;;;73.17;68.65;;;;;;;;;;1758849;81;25474;-75
2023/04/30 07:58:59;;;;;;;72.87;68.28;;;;;;;;;;1726976;83;25487;-72
2023/04/30 08:01:26;;;;;;;72.85;68.02;;;;;;;;;;1723161;83;27928;-73
2023/04/30 08:03:53;;;;;;;69.45;64.80;;;;;;;;;;1758937;81;25355;-73
2023/04/30 08:06:21;;;;;;;70.25;65.62;;;;;;;;;;1727084;83;25313;-72
2023/04/30 08:08:48;;;;;;;73.25;68.62;;;;;;;;;;1723242;83;26220;-73
2023/04/30 08:11:15;;;;;;;67.65;63.40;;;;;;;;;;1759053;81;25460;-71
2023/04/30 08:13:42;;;;;;;7.25;3.25;;;;;;;;;;1726978;83;27172;-72
2023/04/30 08:16:09;;;;;;;8.05;3.02;;;;;;;;;;1723088;83;25286;-72
2023/04/30 08:18:37;;;;;;;5.78;3.27;;;;;;;;;;1758762;81;25299;-73
2023/04/30 08:21:05;;;;;;;10.15;3.15;;;;;;;;;;1758963;81;25506;-74
2023/04/30 08:23:33;;;;;;;6.53;3.30;;;;;;;;;;1758794;81;25496;-73
2023/04/30 08:25:59;;;;;;;5.22;3.10;;;;;;;;;;1758986;81;27342;-71
2023/04/30 08:28:27;;;;;;;13.43;3.90;;;;;;;;;;1759088;81;25637;-72
2023/04/30 08:30:54;;;;;;;5.25;3.33;;;;;;;;;;1759346;81;25520;-72
2023/04/30 08:33:21;;;;;;;8.43;4.53;;;;;;;;;;1758717;81;25531;-72
2023/04/30 08:35:48;;;;;;;9.53;3.45;;;;;;;;;;1758801;81;25472;-72
2023/04/30 08:38:15;;;;;;;6.55;3.87;;;;;;;;;;1758738;81;27581;-71
2023/04/30 08:40:46;;;;;;;6.67;3.02;;;;;;;;;;1758523;81;25473;-70
2023/04/30 08:43:14;;;;;;;3.72;2.65;;;;;;;;;;1758437;81;25390;-71
2023/04/30 08:45:41;;;;;;;9.15;2.95;;;;;;;;;;1757561;81;25583;-71
2023/04/30 08:48:11;;;;;;;8.60;3.10;;;;;;;;;;1768054;80;25492;-62
2023/04/30 08:50:38;;;;;;;5.60;3.35;;;;;;;;;;1789961;80;27404;-63
2023/04/30 08:53:08;;;;;;;8.10;2.72;;;;;;;;;;1789790;80;25379;-63
2023/04/30 08:55:36;;;;;;;5.10;2.55;;;;;;;;;;1790080;80;25294;-63
2023/04/30 08:58:04;;;;;;;6.87;2.87;;;;;;;;;;1789858;80;25588;-63
2023/04/30 09:00:33;;;;;;;6.00;3.67;;;;;;;;;;1787302;80;25512;-70
2023/04/30 09:03:01;;;;;;;6.95;3.35;;;;;;;;;;1761313;80;27410;-66
2023/04/30 09:05:28;;;;;;;5.17;3.20;;;;;;;;;;1789861;80;25290;-65
2023/04/30 09:07:56;;;;;;;8.88;3.05;;;;;;;;;;1789933;80;25366;-67
2023/04/30 09:10:23;;;;;;;8.25;3.08;;;;;;;;;;1789875;80;25555;-67
2023/04/30 09:13:05;;;;;;;7.08;3.22;;;;;;;;;;1789934;80;25453;-69
2023/04/30 09:15:33;;;;;;;15.15;3.42;;;;;;;;;;1789961;80;27564;-67
2023/04/30 09:18:16;;;;;;;6.53;3.60;;;;;;;;;;1790107;80;25535;-66
2023/04/30 09:21:03;;;;;;;14.53;13.18;;;;;;;;;;1790044;80;25436;-66
2023/04/30 09:23:30;;;;;;;5.33;3.25;;;;;;;;;;1789893;80;25500;-67
2023/04/30 09:25:57;;;;;;;6.87;3.27;;;;;;;;;;1789905;78;25312;-69
2023/04/30 09:28:26;;;;;;;8.13;2.92;;;;;;;;;;1789960;80;27408;-68
2023/04/30 09:30:56;;;;;;;8.58;4.12;;;;;;;;;;1789845;80;25468;-67
2023/04/30 09:33:23;;;;;;;6.97;3.40;;;;;;;;;;1789926;80;25366;-67
2023/04/30 09:35:51;;;;;;;7.00;3.22;;;;;;;;;;1789905;80;25324;-67
2023/04/30 09:38:29;;;;;;;54.58;51.02;;;;;;;;;;1789899;80;25464;-67
2023/04/30 09:41:01;;;;;;;4.87;3.12;;;;;;;;;;1782967;79;27505;-67
2023/04/30 09:43:28;;;;;;;9.20;6.10;;;;;;;;;;1760770;81;25504;-68
2023/04/30 09:45:58;;;;;;;7.53;3.90;;;;;;;;;;1760796;80;25276;-62
2023/04/30 09:48:28;;;;;;;;;;;;;;;;;;1763395;81;25527;-60
2023/04/30 09:50:55;;;;;;;9.18;3.60;;;;;;;;;;1760849;81;25450;-60
2023/04/30 09:53:23;;;;;;;5.47;2.98;;;;;;;;;;1760933;80;27393;-63
2023/04/30 09:55:51;;;;;;;5.17;2.80;;;;;;;;;;1760722;81;25654;-61
2023/04/30 09:58:19;;;;;;;6.72;2.50;;;;;;;;;;1761104;81;25332;-63
2023/04/30 10:00:49;;;;;;;5.27;2.73;;;;;;;;;;1761032;81;26052;-63
2023/04/30 10:03:16;;;;;;;;;;;;;;;;;;1763500;81;25500;-64
2023/04/30 10:05:48;;;;;;;5.08;2.37;;;;;;;;;;1760823;81;27388;-64
2023/04/30 10:08:25;;;;;;;2.72;2.10;;;;;;;;;;1760758;81;25293;-64
2023/04/30 10:10:55;;;;;;;10.65;2.60;;;;;;;;;;1760796;80;25316;-65
2023/04/30 10:13:25;;;;;;;9.05;8.33;;;;;;;;;;1760322;80;25562;-57
2023/04/30 10:15:55;;;;;;;3.98;2.10;;;;;;;;;;1760838;81;25342;-56
2023/04/30 10:18:36;;;;;;;2.98;1.70;;;;;;;;;;1760769;80;27361;-57
2023/04/30 10:21:11;;;;;;;5.80;2.05;;;;;;;;;;1760720;81;25457;-54
2023/04/30 10:23:42;;;;;;;5.80;2.00;;;;;;;;;;1760857;80;25288;-54
2023/04/30 10:26:11;;;;;;;3.77;1.75;;;;;;;;;;1760865;80;25559;-57
2023/04/30 10:28:39;;;;;;;7.17;1.90;;;;;;;;;;1760816;81;25278;-56
2023/04/30 10:31:09;;;;;;;4.07;2.03;;;;;;;;;;1761056;81;27363;-56
2023/04/30 10:33:55;;;;;;;2.52;1.70;;;;;;;;;;1760634;80;25313;-57
2023/04/30 10:36:43;;;;;;;7.15;2.15;;;;;;;;;;1760701;81;25486;-57
2023/04/30 10:39:11;;;;;;;5.37;1.60;;;;;;;;;;1760741;81;25500;-58
2023/04/30 10:41:40;;;;;;;3.30;1.60;;;;;;;;;;1760977;79;25287;-56
2023/04/30 10:44:07;;;;;;;5.33;1.70;;;;;;;;;;1745906;81;27368;-61
2023/04/30 10:46:35;;;;;;;3.37;1.82;;;;;;;;;;1760676;80;25501;-58
2023/04/30 10:49:03;;;;;;;2.58;1.60;;;;;;;;;;1760841;81;25330;-60
2023/04/30 10:51:59;;;;;;;3.67;1.50;;;;;;;;;;1760833;80;25606;-60
2023/04/30 10:54:28;;;;;;;3.47;1.40;;;;;;;;;;1759517;80;25502;-64
2023/04/30 10:57:16;;;;;;;3.12;1.60;;;;;;;;;;1760776;80;27945;-67
2023/04/30 10:59:46;;;;;;;30.88;28.90;;;;;;;;;;1756155;80;25449;-65
2023/04/30 11:02:16;;;;;;;65.35;61.88;;;;;;;;;;1760492;80;25295;-63
2023/04/30 11:05:19;;;;;;;20.23;18.98;;;;;;;;;;1760741;80;25605;-71
2023/04/30 11:07:51;;;;;;;4.50;2.05;;;;;;;;;;1760970;80;25097;-76
2023/04/30 11:10:21;;;;;;;2.62;1.70;;;;;;;;;;1744990;81;27981;-70
2023/04/30 11:12:51;;;;;;;36.73;34.55;;;;;;;;;;1760807;81;25242;-74
2023/04/30 11:15:21;;;;;;;3.47;1.50;;;;;;;;;;1760835;80;25527;-68
2023/04/30 11:17:49;;;;;;;65.03;61.18;;;;;;;;;;1760756;80;25540;-64
2023/04/30 11:20:22;;;;;;;31.12;29.25;;;;;;;;;;1760867;81;25320;-66
2023/04/30 11:23:05;;;;;;;5.62;2.10;;;;;;;;;;1760800;80;27424;-66
2023/04/30 11:25:41;;;;;;;7.17;3.08;;;;;;;;;;1739024;82;25475;-68
2023/04/30 11:28:17;;;;;;;51.75;48.83;;;;;;;;;;1738770;82;25366;-68
2023/04/30 11:30:58;;;;;;;3.47;1.50;;;;;;;;;;1739470;82;25560;-70
2023/04/30 11:33:27;;;;;;;65.80;61.95;;;;;;;;;;1739560;82;25520;-68
2023/04/30 11:35:56;;;;;;;67.35;63.65;;;;;;;;;;1739757;82;29579;-67
2023/04/30 11:38:27;;;;;;;;;;;;;;;;;;1742196;82;25487;-69
2023/04/30 11:40:56;;;;;;;37.98;35.63;;;;;;;;;;1739691;82;25472;-70
2023/04/30 11:43:25;;;;;;;3.37;1.50;;;;;;;;;;1741410;81;25586;-67
2023/04/30 11:46:08;;;;;;;53.30;50.15;;;;;;;;;;1741675;82;25465;-69
2023/04/30 11:48:37;;;;;;;2.42;1.55;;;;;;;;;;1741533;82;27468;-65
2023/04/30 11:51:22;;;;;;;3.85;1.12;;;;;;;;;;1740914;82;25413;-68
2023/04/30 11:53:51;;;;;;;4.62;1.32;;;;;;;;;;1741738;82;25493;-63
2023/04/30 11:56:21;;;;;;;2.05;1.32;;;;;;;;;;1741617;82;25742;-63
2023/04/30 11:58:51;;;;;;;3.00;1.22;;;;;;;;;;1740522;82;25545;-66
2023/04/30 12:01:19;;;;;;;3.45;1.65;;;;;;;;;;1748177;81;27442;-56
2023/04/30 12:03:49;;;;;;;4.37;1.72;;;;;;;;;;1757444;81;25453;-57
2023/04/30 12:06:24;;;;;;;2.83;1.30;;;;;;;;;;1757437;81;25513;-51
2023/04/30 12:08:56;;;;;;;2.87;1.60;;;;;;;;;;1757365;81;25628;-57
2023/04/30 12:11:28;;;;;;;3.85;1.20;;;;;;;;;;1757442;80;25517;-55
2023/04/30 12:13:59;;;;;;;4.55;1.50;;;;;;;;;;1757358;81;26597;-52
2023/04/30 12:16:28;;;;;;;4.78;1.65;;;;;;;;;;1757332;81;25379;-53
2023/04/30 12:18:55;;;;;;;67.30;63.42;;;;;;;;;;1757493;81;25289;-55
2023/04/30 12:21:22;;;;;;;64.53;61.00;;;;;;;;;;1757368;81;25532;-65
2023/04/30 12:23:49;;;;;;;64.82;61.20;;;;;;;;;;1757424;81;25563;-65
2023/04/30 12:26:16;;;;;;;4.58;2.30;;;;;;;;;;1757386;81;27355;-61
2023/04/30 12:28:47;;;;;;;65.30;61.65;;;;;;;;;;1767676;81;25415;-62
2023/04/30 12:31:16;;;;;;;64.70;61.20;;;;;;;;;;1757424;81;25343;-62
2023/04/30 12:33:47;;;;;;;33.38;31.50;;;;;;;;;;1757347;81;26102;-64
2023/04/30 12:36:14;;;;;;;65.45;61.95;;;;;;;;;;1756065;81;25509;-63
2023/04/30 12:38:45;;;;;;;3.15;1.87;;;;;;;;;;1757444;81;27392;-64
2023/04/30 12:41:14;;;;;;;2.60;1.37;;;;;;;;;;1757290;81;25332;-63
2023/04/30 12:43:41;;;;;;;4.83;1.90;;;;;;;;;;1770741;80;25361;-64
2023/04/30 12:46:08;;;;;;;4.47;1.62;;;;;;;;;;1771771;81;26156;-63
2023/04/30 12:48:44;;;;;;;3.98;1.57;;;;;;;;;;1771825;81;25458;-64
2023/04/30 12:51:11;;;;;;;67.92;64.22;;;;;;;;;;1772006;80;27419;-63
2023/04/30 12:53:45;;;;;;;57.30;54.05;;;;;;;;;;1771829;81;25359;-63
2023/04/30 12:56:16;;;;;;;68.57;64.65;;;;;;;;;;1771880;81;25073;-64
2023/04/30 12:58:48;;;;;;;66.37;62.70;;;;;;;;;;1709183;84;25524;-62
2023/04/30 13:01:23;;;;;;;66.53;62.85;;;;;;;;;;1739525;82;25452;-63
2023/04/30 13:03:52;;;;;;;67.95;64.15;;;;;;;;;;1739536;82;27528;-63
2023/04/30 13:06:21;;;;;;;68.10;64.42;;;;;;;;;;1739596;82;25367;-62
2023/04/30 13:08:49;;;;;;;66.33;62.65;;;;;;;;;;1739579;82;25518;-60
2023/04/30 13:11:16;;;;;;;66.62;63.00;;;;;;;;;;1739482;82;27688;-60
2023/04/30 13:13:43;;;;;;;65.92;62.30;;;;;;;;;;1739556;82;25181;-63
2023/04/30 13:16:10;;;;;;;66.97;63.25;;;;;;;;;;1739492;82;29614;-60
2023/04/30 13:18:37;;;;;;;67.22;63.52;;;;;;;;;;1739411;82;25372;-56
2023/04/30 13:21:04;;;;;;;68.22;64.07;;;;;;;;;;1739590;82;25342;-59
2023/04/30 13:23:31;;;;;;;66.28;62.58;;;;;;;;;;1739583;82;26442;-61
2023/04/30 13:25:58;;;;;;;68.95;65.22;;;;;;;;;;1739649;82;25474;-62
2023/04/30 13:28:25;;;;;;;67.62;63.55;;;;;;;;;;1739487;82;29531;-63
2023/04/30 13:30:52;;;;;;;66.95;63.35;;;;;;;;;;1739519;82;25358;-61
2023/04/30 13:33:19;;;;;;;67.80;63.83;;;;;;;;;;1739535;82;25534;-61
2023/04/30 13:35:48;;;;;;;69.95;66.07;;;;;;;;;;1739550;82;25707;-62
2023/04/30 13:38:15;;;;;;;68.37;64.62;;;;;;;;;;1739621;82;25479;-61
2023/04/30 13:40:42;;;;;;;67.90;64.40;;;;;;;;;;1739464;82;28133;-62
2023/04/30 13:43:09;;;;;;;66.85;63.13;;;;;;;;;;1752402;81;25314;-64
2023/04/30 14:00:20;;;;;;;67.47;63.70;;;;;;;;;;1760821;76;27340;-65
2023/04/30 14:02:47;;;;;;;68.60;64.70;;;;;;;;;;1785972;80;25587;-64
2023/04/30 14:05:15;;;;;;;68.28;64.47;;;;;;;;;;1787127;80;25302;-64
2023/04/30 14:07:42;;;;;;;67.27;63.40;;;;;;;;;;1787107;80;27613;-62
2023/04/30 14:10:09;;;;;;;69.07;65.37;;;;;;;;;;1787008;80;27143;-67
2023/04/30 14:12:37;;;;;;;67.05;63.28;;;;;;;;;;1760651;80;25516;-63
2023/04/30 14:15:05;;;;;;;68.65;64.87;;;;;;;;;;1787059;80;25537;-63
2023/04/30 14:17:32;;;;;;;67.10;63.40;;;;;;;;;;1787324;80;25300;-63
2023/04/30 14:19:59;;;;;;;68.80;64.72;;;;;;;;;;1787023;80;29619;-59
2023/04/30 14:22:26;;;;;;;72.90;68.35;;;;;;;;;;1786993;80;25302;-62
2023/04/30 14:24:53;;;;;;;69.47;65.37;;;;;;;;;;1787073;80;25478;-63
2023/04/30 14:27:20;;;;;;;69.22;65.25;;;;;;;;;;1787089;80;25504;-62
2023/04/30 14:29:47;;;;;;;71.28;67.25;;;;;;;;;;1787120;80;25527;-59